sensor_id;sensor_type;location;lat;lon;timestamp;temperature;humidity
17529;DHT22;8882;53.192;8.184;2022-12-07T05:32:41;3.10;99.90
17529;DHT22;8882;53.192;8.184;2022-12-07T05:35:06;3.10;99.90
17529;DHT22;8882;53.192;8.184;2022-12-07T05:37:32;3.10;99.90
17529;DHT22;8882;53.192;8.184;2022-12-07T05:39:58;3.10;99.90
17529;DHT22;8882;53.192;8.184;2022-12-07T05:42:23;3.10;99.90
17529;DHT22;8882;53.192;8.184;2022-12-07T05:44:49;3.10;99.90
17529;DHT22;8882;53.192;8.184;2022-12-07T05:47:15;3.10;99.90
17529;DHT22;8882;53.192;8.184;2022-12-07T05:49:40;3.10;99.90
17529;DHT22;8882;53.192;8.184;2022-12-07T05:52:06;3.10;99.90
17529;DHT22;8882;53.192;8.184;2022-12-07T05:54:32;3.10;99.90
17529;DHT22;8882;53.192;8.184;2022-12-07T05:56:58;3.10;99.90
17529;DHT22;8882;53.192;8.184;2022-12-07T05:59:24;3.00;99.90
17529;DHT22;8882;53.192;8.184;2022-12-07T06:02:00;3.00;99.90
17529;DHT22;8882;53.192;8.184;2022-12-07T06:04:28;3.00;99.90
17529;DHT22;8882;53.192;8.184;2022-12-07T06:06:54;3.00;99.90
17529;DHT22;8882;53.192;8.184;2022-12-07T06:09:21;3.10;99.90
17529;DHT22;8882;53.192;8.184;2022-12-07T06:11:47;3.10;99.90
17529;DHT22;8882;53.192;8.184;2022-12-07T06:14:32;3.10;99.90
17529;DHT22;8882;53.192;8.184;2022-12-07T06:16:58;3.10;99.90
17529;DHT22;8882;53.192;8.184;2022-12-07T06:19:24;3.10;99.90
17529;DHT22;8882;53.192;8.184;2022-12-07T06:21:49;3.10;99.90
17529;DHT22;8882;53.192;8.184;2022-12-07T06:24:16;3.10;99.90
17529;DHT22;8882;53.192;8.184;2022-12-07T06:26:43;3.20;99.90
17529;DHT22;8882;53.192;8.184;2022-12-07T06:29:09;3.20;99.90
17529;DHT22;8882;53.192;8.184;2022-12-07T06:31:35;3.20;99.90
17529;DHT22;8882;53.192;8.184;2022-12-07T06:34:02;3.20;99.90
17529;DHT22;8882;53.192;8.184;2022-12-07T06:36:29;3.20;99.90
17529;DHT22;8882;53.192;8.184;2022-12-07T06:38:55;3.30;99.90
17529;DHT22;8882;53.192;8.184;2022-12-07T06:41:21;3.30;99.90
17529;DHT22;8882;53.192;8.184;2022-12-07T06:43:46;3.30;99.90
17529;DHT22;8882;53.192;8.184;2022-12-07T06:46:13;3.30;99.90
17529;DHT22;8882;53.192;8.184;2022-12-07T06:48:39;3.30;99.90
17529;DHT22;8882;53.192;8.184;2022-12-07T06:51:05;3.30;99.90
17529;DHT22;8882;53.192;8.184;2022-12-07T06:53:30;3.20;99.90
17529;DHT22;8882;53.192;8.184;2022-12-07T06:55:55;3.30;99.90
17529;DHT22;8882;53.192;8.184;2022-12-07T06:58:21;3.30;99.90
17529;DHT22;8882;53.192;8.184;2022-12-07T07:00:48;3.20;99.90
17529;DHT22;8882;53.192;8.184;2022-12-07T07:03:13;3.30;99.90
17529;DHT22;8882;53.192;8.184;2022-12-07T07:05:39;3.20;99.90
17529;DHT22;8882;53.192;8.184;2022-12-07T07:08:05;3.20;99.90
17529;DHT22;8882;53.192;8.184;2022-12-07T07:10:30;3.20;99.90
17529;DHT22;8882;53.192;8.184;2022-12-07T07:12:56;3.10;99.90
17529;DHT22;8882;53.192;8.184;2022-12-07T07:15:21;3.10;99.90
17529;DHT22;8882;53.192;8.184;2022-12-07T07:17:47;3.10;99.90
17529;DHT22;8882;53.192;8.184;2022-12-07T07:20:13;3.10;99.90
17529;DHT22;8882;53.192;8.184;2022-12-07T07:22:38;3.00;99.90
17529;DHT22;8882;53.192;8.184;2022-12-07T07:25:04;2.90;99.90
17529;DHT22;8882;53.192;8.184;2022-12-07T07:27:29;2.90;99.90
17529;DHT22;8882;53.192;8.184;2022-12-07T07:29:55;2.90;99.90
17529;DHT22;8882;53.192;8.184;2022-12-07T07:32:20;2.90;99.90
17529;DHT22;8882;53.192;8.184;2022-12-07T07:34:47;2.80;99.90
17529;DHT22;8882;53.192;8.184;2022-12-07T07:37:13;2.80;99.90
17529;DHT22;8882;53.192;8.184;2022-12-07T07:39:39;2.80;99.90
17529;DHT22;8882;53.192;8.184;2022-12-07T07:42:05;2.80;99.90
17529;DHT22;8882;53.192;8.184;2022-12-07T07:44:30;2.80;99.90
17529;DHT22;8882;53.192;8.184;2022-12-07T07:46:56;2.80;99.90
17529;DHT22;8882;53.192;8.184;2022-12-07T07:49:21;2.90;99.90
17529;DHT22;8882;53.192;8.184;2022-12-07T07:51:47;3.00;99.90
17529;DHT22;8882;53.192;8.184;2022-12-07T07:54:12;2.90;99.90
17529;DHT22;8882;53.192;8.184;2022-12-07T07:56:38;2.90;99.90
17529;DHT22;8882;53.192;8.184;2022-12-07T07:59:03;2.90;99.90
17529;DHT22;8882;53.192;8.184;2022-12-07T08:01:29;2.90;99.90
17529;DHT22;8882;53.192;8.184;2022-12-07T08:03:54;2.90;99.90
17529;DHT22;8882;53.192;8.184;2022-12-07T08:06:20;2.90;99.90
17529;DHT22;8882;53.192;8.184;2022-12-07T08:08:45;2.90;99.90
17529;DHT22;8882;53.192;8.184;2022-12-07T08:11:11;2.90;99.90
17529;DHT22;8882;53.192;8.184;2022-12-07T08:13:37;2.90;99.90
17529;DHT22;8882;53.192;8.184;2022-12-07T08:16:08;2.80;99.90
17529;DHT22;8882;53.192;8.184;2022-12-07T08:18:41;2.80;99.90
17529;DHT22;8882;53.192;8.184;2022-12-07T08:21:09;2.90;99.90
17529;DHT22;8882;53.192;8.184;2022-12-07T08:23:35;2.90;99.90
17529;DHT22;8882;53.192;8.184;2022-12-07T08:26:02;2.90;99.90
17529;DHT22;8882;53.192;8.184;2022-12-07T08:28:28;3.00;99.90
17529;DHT22;8882;53.192;8.184;2022-12-07T08:31:01;3.00;99.90
17529;DHT22;8882;53.192;8.184;2022-12-07T08:33:27;3.00;99.90
17529;DHT22;8882;53.192;8.184;2022-12-07T08:35:52;3.10;99.90
17529;DHT22;8882;53.192;8.184;2022-12-07T08:38:18;3.10;99.90
17529;DHT22;8882;53.192;8.184;2022-12-07T08:40:43;3.10;99.90
17529;DHT22;8882;53.192;8.184;2022-12-07T08:43:09;3.10;99.90
17529;DHT22;8882;53.192;8.184;2022-12-07T08:45:34;3.10;99.90
17529;DHT22;8882;53.192;8.184;2022-12-07T08:48:09;3.20;99.90
17529;DHT22;8882;53.192;8.184;2022-12-07T08:50:37;3.20;99.90
17529;DHT22;8882;53.192;8.184;2022-12-07T08:53:04;3.20;99.90
17529;DHT22;8882;53.192;8.184;2022-12-07T08:55:30;3.20;99.90
17529;DHT22;8882;53.192;8.184;2022-12-07T08:57:58;3.30;99.90
17529;DHT22;8882;53.192;8.184;2022-12-07T09:00:24;3.20;99.90
17529;DHT22;8882;53.192;8.184;2022-12-07T09:02:51;3.20;99.90
17529;DHT22;8882;53.192;8.184;2022-12-07T09:05:16;3.10;99.90
17529;DHT22;8882;53.192;8.184;2022-12-07T09:07:43;3.20;99.90
17529;DHT22;8882;53.192;8.184;2022-12-07T09:10:10;3.20;99.90
17529;DHT22;8882;53.192;8.184;2022-12-07T09:12:35;3.30;99.90
17529;DHT22;8882;53.192;8.184;2022-12-07T09:15:01;3.30;99.90
17529;DHT22;8882;53.192;8.184;2022-12-07T09:17:27;3.30;99.90
17529;DHT22;8882;53.192;8.184;2022-12-07T09:19:56;3.40;99.90
17529;DHT22;8882;53.192;8.184;2022-12-07T09:22:22;3.40;99.90
17529;DHT22;8882;53.192;8.184;2022-12-07T09:24:47;3.50;99.90
17529;DHT22;8882;53.192;8.184;2022-12-07T09:27:13;3.60;99.90
17529;DHT22;8882;53.192;8.184;2022-12-07T09:29:38;3.70;99.90
17529;DHT22;8882;53.192;8.184;2022-12-07T09:32:04;3.70;99.90
17529;DHT22;8882;53.192;8.184;2022-12-07T09:34:31;3.70;99.90
17529;DHT22;8882;53.192;8.184;2022-12-07T09:36:57;3.70;99.90
17529;DHT22;8882;53.192;8.184;2022-12-07T09:39:22;3.80;99.90
17529;DHT22;8882;53.192;8.184;2022-12-07T09:41:48;3.80;99.90
17529;DHT22;8882;53.192;8.184;2022-12-07T09:44:24;3.80;99.90
17529;DHT22;8882;53.192;8.184;2022-12-07T09:46:51;3.80;99.90
17529;DHT22;8882;53.192;8.184;2022-12-07T09:49:20;3.80;99.90
17529;DHT22;8882;53.192;8.184;2022-12-07T09:51:46;3.80;99.90
17529;DHT22;8882;53.192;8.184;2022-12-07T09:54:16;3.80;99.90
17529;DHT22;8882;53.192;8.184;2022-12-07T09:56:45;3.90;99.90
17529;DHT22;8882;53.192;8.184;2022-12-07T09:59:16;4.20;99.90
17529;DHT22;8882;53.192;8.184;2022-12-07T10:01:43;4.20;99.90
17529;DHT22;8882;53.192;8.184;2022-12-07T10:04:18;4.20;99.90
17529;DHT22;8882;53.192;8.184;2022-12-07T10:06:44;4.10;99.90
17529;DHT22;8882;53.192;8.184;2022-12-07T10:09:12;4.20;99.90
17529;DHT22;8882;53.192;8.184;2022-12-07T10:12:10;4.10;99.90
17529;DHT22;8882;53.192;8.184;2022-12-07T10:14:39;4.10;99.90
17529;DHT22;8882;53.192;8.184;2022-12-07T10:17:41;4.10;99.90
17529;DHT22;8882;53.192;8.184;2022-12-07T10:20:16;4.10;99.90
17529;DHT22;8882;53.192;8.184;2022-12-07T10:23:01;4.20;99.90
17529;DHT22;8882;53.192;8.184;2022-12-07T10:25:33;4.30;99.90
17529;DHT22;8882;53.192;8.184;2022-12-07T10:28:12;4.30;99.90
17529;DHT22;8882;53.192;8.184;2022-12-07T10:30:52;4.40;99.90
17529;DHT22;8882;53.192;8.184;2022-12-07T10:33:31;4.50;99.90
17529;DHT22;8882;53.192;8.184;2022-12-07T10:35:57;4.50;99.90
17529;DHT22;8882;53.192;8.184;2022-12-07T10:38:27;4.50;99.90
17529;DHT22;8882;53.192;8.184;2022-12-07T10:41:07;4.50;99.90
17529;DHT22;8882;53.192;8.184;2022-12-07T10:43:32;4.60;99.90
17529;DHT22;8882;53.192;8.184;2022-12-07T10:51:46;4.60;99.90
17529;DHT22;8882;53.192;8.184;2022-12-07T10:54:55;4.70;99.90
17529;DHT22;8882;53.192;8.184;2022-12-07T11:00:19;4.60;99.90
17529;DHT22;8882;53.192;8.184;2022-12-07T11:05:54;4.70;99.90
17529;DHT22;8882;53.192;8.184;2022-12-07T11:11:21;4.60;99.90
17529;DHT22;8882;53.192;8.184;2022-12-07T11:14:03;4.60;99.90
17529;DHT22;8882;53.192;8.184;2022-12-07T11:16:43;4.60;99.90
17529;DHT22;8882;53.192;8.184;2022-12-07T11:25:29;4.60;99.90
17529;DHT22;8882;53.192;8.184;2022-12-07T11:31:01;4.80;99.90
17529;DHT22;8882;53.192;8.184;2022-12-07T11:38:58;4.90;99.90
17529;DHT22;8882;53.192;8.184;2022-12-07T11:41:35;5.00;99.90
17529;DHT22;8882;53.192;8.184;2022-12-07T11:44:17;5.10;99.90
17529;DHT22;8882;53.192;8.184;2022-12-07T11:46:51;5.10;99.90
17529;DHT22;8882;53.192;8.184;2022-12-07T11:49:43;5.10;99.90
17529;DHT22;8882;53.192;8.184;2022-12-07T11:52:32;5.20;99.90
17529;DHT22;8882;53.192;8.184;2022-12-07T11:55:18;5.30;99.90
17529;DHT22;8882;53.192;8.184;2022-12-07T11:57:46;5.30;99.90
17529;DHT22;8882;53.192;8.184;2022-12-07T12:00:16;5.30;99.90
17529;DHT22;8882;53.192;8.184;2022-12-07T12:02:52;5.30;99.90
17529;DHT22;8882;53.192;8.184;2022-12-07T12:05:24;5.30;99.90
17529;DHT22;8882;53.192;8.184;2022-12-07T12:08:11;5.30;99.90
17529;DHT22;8882;53.192;8.184;2022-12-07T12:13:56;5.40;99.90
17529;DHT22;8882;53.192;8.184;2022-12-07T12:17:23;5.40;99.90
17529;DHT22;8882;53.192;8.184;2022-12-07T12:19:32;5.40;99.90
17529;DHT22;8882;53.192;8.184;2022-12-07T12:22:12;5.50;99.90
17529;DHT22;8882;53.192;8.184;2022-12-07T12:24:40;5.40;99.90
17529;DHT22;8882;53.192;8.184;2022-12-07T12:27:09;5.40;99.90
17529;DHT22;8882;53.192;8.184;2022-12-07T12:29:40;5.40;99.90
17529;DHT22;8882;53.192;8.184;2022-12-07T12:32:28;5.30;99.90
17529;DHT22;8882;53.192;8.184;2022-12-07T12:42:53;5.40;99.90
17529;DHT22;8882;53.192;8.184;2022-12-07T12:45:25;5.30;99.90
17529;DHT22;8882;53.192;8.184;2022-12-07T12:47:55;5.40;99.90
17529;DHT22;8882;53.192;8.184;2022-12-07T12:50:27;5.40;99.90
17529;DHT22;8882;53.192;8.184;2022-12-07T12:52:54;5.40;99.90
17529;DHT22;8882;53.192;8.184;2022-12-07T12:55:29;5.40;99.90
17529;DHT22;8882;53.192;8.184;2022-12-07T13:00:43;5.40;99.90
17529;DHT22;8882;53.192;8.184;2022-12-07T13:03:29;5.40;99.90
17529;DHT22;8882;53.192;8.184;2022-12-07T13:06:31;5.30;99.90
17529;DHT22;8882;53.192;8.184;2022-12-07T13:08:59;5.20;99.90
17529;DHT22;8882;53.192;8.184;2022-12-07T13:11:32;5.10;99.90
17529;DHT22;8882;53.192;8.184;2022-12-07T13:17:03;4.90;99.90
17529;DHT22;8882;53.192;8.184;2022-12-07T13:25:11;4.80;99.90
17529;DHT22;8882;53.192;8.184;2022-12-07T13:27:38;4.80;99.90
17529;DHT22;8882;53.192;8.184;2022-12-07T13:30:15;4.80;99.90
17529;DHT22;8882;53.192;8.184;2022-12-07T13:32:42;4.90;99.90
17529;DHT22;8882;53.192;8.184;2022-12-07T13:35:34;4.90;99.90
17529;DHT22;8882;53.192;8.184;2022-12-07T13:38:04;4.90;99.90
17529;DHT22;8882;53.192;8.184;2022-12-07T13:40:30;4.90;99.90
17529;DHT22;8882;53.192;8.184;2022-12-07T13:43:03;4.90;99.90
17529;DHT22;8882;53.192;8.184;2022-12-07T13:45:31;4.90;99.90
17529;DHT22;8882;53.192;8.184;2022-12-07T13:50:53;4.80;99.90
17529;DHT22;8882;53.192;8.184;2022-12-07T13:53:19;4.70;99.90
17529;DHT22;8882;53.192;8.184;2022-12-07T13:55:46;4.50;99.90
17529;DHT22;8882;53.192;8.184;2022-12-07T13:58:12;4.30;99.90
17529;DHT22;8882;53.192;8.184;2022-12-07T14:00:39;4.30;99.90
17529;DHT22;8882;53.192;8.184;2022-12-07T14:05:38;4.10;99.90
17529;DHT22;8882;53.192;8.184;2022-12-07T14:16:05;3.80;99.90
17529;DHT22;8882;53.192;8.184;2022-12-07T14:18:43;3.80;99.90
17529;DHT22;8882;53.192;8.184;2022-12-07T14:21:17;3.70;99.90
17529;DHT22;8882;53.192;8.184;2022-12-07T14:23:44;3.70;99.90
17529;DHT22;8882;53.192;8.184;2022-12-07T14:26:15;3.60;99.90
17529;DHT22;8882;53.192;8.184;2022-12-07T14:28:42;3.60;99.90
17529;DHT22;8882;53.192;8.184;2022-12-07T14:31:21;3.50;99.90
17529;DHT22;8882;53.192;8.184;2022-12-07T14:33:48;3.40;99.90
17529;DHT22;8882;53.192;8.184;2022-12-07T14:36:14;3.50;99.90
17529;DHT22;8882;53.192;8.184;2022-12-07T14:38:40;3.50;99.90
17529;DHT22;8882;53.192;8.184;2022-12-07T14:41:12;3.50;99.90
17529;DHT22;8882;53.192;8.184;2022-12-07T14:43:57;3.70;99.90
17529;DHT22;8882;53.192;8.184;2022-12-07T14:46:23;3.80;99.90
17529;DHT22;8882;53.192;8.184;2022-12-07T14:48:48;3.80;99.90
17529;DHT22;8882;53.192;8.184;2022-12-07T14:51:14;3.90;99.90
17529;DHT22;8882;53.192;8.184;2022-12-07T14:53:48;4.20;99.90
17529;DHT22;8882;53.192;8.184;2022-12-07T14:56:15;4.20;99.90
17529;DHT22;8882;53.192;8.184;2022-12-07T14:58:41;4.20;99.90
17529;DHT22;8882;53.192;8.184;2022-12-07T15:01:06;4.10;99.90
17529;DHT22;8882;53.192;8.184;2022-12-07T15:03:32;4.10;99.90
17529;DHT22;8882;53.192;8.184;2022-12-07T15:06:00;4.00;99.90
17529;DHT22;8882;53.192;8.184;2022-12-07T15:08:25;4.10;99.90
17529;DHT22;8882;53.192;8.184;2022-12-07T15:10:51;4.10;99.90
17529;DHT22;8882;53.192;8.184;2022-12-07T15:13:17;4.10;99.90
17529;DHT22;8882;53.192;8.184;2022-12-07T15:16:01;4.00;99.90
17529;DHT22;8882;53.192;8.184;2022-12-07T15:18:27;4.00;99.90
17529;DHT22;8882;53.192;8.184;2022-12-07T15:20:53;4.00;99.90
17529;DHT22;8882;53.192;8.184;2022-12-07T15:23:18;4.00;99.90
17529;DHT22;8882;53.192;8.184;2022-12-07T15:25:46;4.10;99.90
17529;DHT22;8882;53.192;8.184;2022-12-07T15:28:12;4.10;99.90
17529;DHT22;8882;53.192;8.184;2022-12-07T15:30:39;4.10;99.90
17529;DHT22;8882;53.192;8.184;2022-12-07T15:33:05;4.10;99.90
17529;DHT22;8882;53.192;8.184;2022-12-07T15:35:30;4.10;99.90
17529;DHT22;8882;53.192;8.184;2022-12-07T15:37:56;4.10;99.90
17529;DHT22;8882;53.192;8.184;2022-12-07T15:40:21;4.10;99.90
17529;DHT22;8882;53.192;8.184;2022-12-07T15:42:47;4.10;99.90
17529;DHT22;8882;53.192;8.184;2022-12-07T15:45:12;4.20;99.90
17529;DHT22;8882;53.192;8.184;2022-12-07T15:47:43;4.20;99.90
17529;DHT22;8882;53.192;8.184;2022-12-07T15:50:13;4.10;99.90
17529;DHT22;8882;53.192;8.184;2022-12-07T15:52:39;4.00;99.90
17529;DHT22;8882;53.192;8.184;2022-12-07T15:55:05;4.00;99.90
17529;DHT22;8882;53.192;8.184;2022-12-07T15:57:32;4.00;99.90
17529;DHT22;8882;53.192;8.184;2022-12-07T15:59:58;3.90;99.90
17529;DHT22;8882;53.192;8.184;2022-12-07T16:02:24;3.80;99.90
17529;DHT22;8882;53.192;8.184;2022-12-07T16:04:50;3.70;99.90
17529;DHT22;8882;53.192;8.184;2022-12-07T16:07:16;3.60;99.90
17529;DHT22;8882;53.192;8.184;2022-12-07T16:09:43;3.50;99.90
17529;DHT22;8882;53.192;8.184;2022-12-07T16:12:09;3.60;99.90
17529;DHT22;8882;53.192;8.184;2022-12-07T16:14:36;3.60;99.90
17529;DHT22;8882;53.192;8.184;2022-12-07T16:17:01;3.50;99.90
17529;DHT22;8882;53.192;8.184;2022-12-07T16:19:27;3.50;99.90
17529;DHT22;8882;53.192;8.184;2022-12-07T16:21:52;3.60;99.90
17529;DHT22;8882;53.192;8.184;2022-12-07T16:24:18;3.50;99.90
17529;DHT22;8882;53.192;8.184;2022-12-07T16:26:44;3.40;99.90
17529;DHT22;8882;53.192;8.184;2022-12-07T16:29:13;3.30;99.90
17529;DHT22;8882;53.192;8.184;2022-12-07T16:31:40;3.30;99.90
17529;DHT22;8882;53.192;8.184;2022-12-07T16:34:06;3.10;99.90
17529;DHT22;8882;53.192;8.184;2022-12-07T16:36:32;3.10;99.90
17529;DHT22;8882;53.192;8.184;2022-12-07T16:39:01;3.00;99.90
17529;DHT22;8882;53.192;8.184;2022-12-07T16:41:27;3.00;99.90
17529;DHT22;8882;53.192;8.184;2022-12-07T16:43:52;2.90;99.90
17529;DHT22;8882;53.192;8.184;2022-12-07T16:46:18;2.90;99.90
17529;DHT22;8882;53.192;8.184;2022-12-07T16:48:43;3.00;99.90
17529;DHT22;8882;53.192;8.184;2022-12-07T16:51:11;3.10;99.90
17529;DHT22;8882;53.192;8.184;2022-12-07T16:53:41;3.10;99.90
17529;DHT22;8882;53.192;8.184;2022-12-07T16:56:15;3.20;99.90
17529;DHT22;8882;53.192;8.184;2022-12-07T16:58:43;3.30;99.90
17529;DHT22;8882;53.192;8.184;2022-12-07T17:01:15;3.40;99.90
17529;DHT22;8882;53.192;8.184;2022-12-07T17:03:41;3.40;99.90
17529;DHT22;8882;53.192;8.184;2022-12-07T17:06:21;3.40;99.90
17529;DHT22;8882;53.192;8.184;2022-12-07T17:08:48;3.40;99.90
17529;DHT22;8882;53.192;8.184;2022-12-07T17:11:17;3.50;99.90
17529;DHT22;8882;53.192;8.184;2022-12-07T17:13:43;3.50;99.90
17529;DHT22;8882;53.192;8.184;2022-12-07T17:16:28;3.60;99.90
17529;DHT22;8882;53.192;8.184;2022-12-07T17:18:54;3.60;99.90
17529;DHT22;8882;53.192;8.184;2022-12-07T17:21:20;3.60;99.90
17529;DHT22;8882;53.192;8.184;2022-12-07T17:23:46;3.60;99.90
17529;DHT22;8882;53.192;8.184;2022-12-07T17:26:14;3.70;99.90
17529;DHT22;8882;53.192;8.184;2022-12-07T17:28:40;3.70;99.90
17529;DHT22;8882;53.192;8.184;2022-12-07T17:31:08;3.70;99.90
17529;DHT22;8882;53.192;8.184;2022-12-07T17:33:34;3.70;99.90
17529;DHT22;8882;53.192;8.184;2022-12-07T17:36:00;3.80;99.90
17529;DHT22;8882;53.192;8.184;2022-12-07T17:38:27;3.80;99.90
17529;DHT22;8882;53.192;8.184;2022-12-07T17:40:53;3.80;99.90
17529;DHT22;8882;53.192;8.184;2022-12-07T17:43:18;3.70;99.90
17529;DHT22;8882;53.192;8.184;2022-12-07T17:45:45;3.70;99.90
17529;DHT22;8882;53.192;8.184;2022-12-07T17:48:11;3.70;99.90
17529;DHT22;8882;53.192;8.184;2022-12-07T17:50:38;3.60;99.90
17529;DHT22;8882;53.192;8.184;2022-12-07T17:53:23;3.40;99.90
17529;DHT22;8882;53.192;8.184;2022-12-07T17:55:52;3.30;99.90
17529;DHT22;8882;53.192;8.184;2022-12-07T17:58:18;3.30;99.90
17529;DHT22;8882;53.192;8.184;2022-12-07T18:00:44;3.20;99.90
17529;DHT22;8882;53.192;8.184;2022-12-07T18:03:09;3.20;99.90
17529;DHT22;8882;53.192;8.184;2022-12-07T18:05:37;3.20;99.90
17529;DHT22;8882;53.192;8.184;2022-12-07T18:08:03;3.10;99.90
17529;DHT22;8882;53.192;8.184;2022-12-07T18:10:29;3.10;99.90
17529;DHT22;8882;53.192;8.184;2022-12-07T18:12:54;3.10;99.90
17529;DHT22;8882;53.192;8.184;2022-12-07T18:15:40;3.10;99.90
17529;DHT22;8882;53.192;8.184;2022-12-07T18:18:06;3.00;99.90
17529;DHT22;8882;53.192;8.184;2022-12-07T18:20:31;3.10;99.90
17529;DHT22;8882;53.192;8.184;2022-12-07T18:22:57;3.00;99.90
17529;DHT22;8882;53.192;8.184;2022-12-07T18:25:22;3.00;99.90
17529;DHT22;8882;53.192;8.184;2022-12-07T18:27:48;3.10;99.90
17529;DHT22;8882;53.192;8.184;2022-12-07T18:30:13;3.80;99.90
17529;DHT22;8882;53.192;8.184;2022-12-07T18:32:39;3.80;99.90
17529;DHT22;8882;53.192;8.184;2022-12-07T18:35:05;3.80;99.90
17529;DHT22;8882;53.192;8.184;2022-12-07T18:37:30;3.80;99.90
17529;DHT22;8882;53.192;8.184;2022-12-07T18:39:57;3.80;99.90
17529;DHT22;8882;53.192;8.184;2022-12-07T18:42:23;3.80;99.90
17529;DHT22;8882;53.192;8.184;2022-12-07T18:44:48;3.70;99.90
17529;DHT22;8882;53.192;8.184;2022-12-07T18:47:14;3.70;99.90
17529;DHT22;8882;53.192;8.184;2022-12-07T18:49:40;3.70;99.90
17529;DHT22;8882;53.192;8.184;2022-12-07T18:52:05;3.70;99.90
17529;DHT22;8882;53.192;8.184;2022-12-07T18:54:31;3.60;99.90
17529;DHT22;8882;53.192;8.184;2022-12-07T18:56:56;3.60;99.90
17529;DHT22;8882;53.192;8.184;2022-12-07T18:59:22;3.60;99.90
17529;DHT22;8882;53.192;8.184;2022-12-07T19:02:06;3.60;99.90
17529;DHT22;8882;53.192;8.184;2022-12-07T19:04:32;3.50;99.90
17529;DHT22;8882;53.192;8.184;2022-12-07T19:06:57;3.50;99.90
17529;DHT22;8882;53.192;8.184;2022-12-07T19:09:23;3.40;99.90
17529;DHT22;8882;53.192;8.184;2022-12-07T19:11:49;3.40;99.90
17529;DHT22;8882;53.192;8.184;2022-12-07T19:14:17;3.50;99.90
17529;DHT22;8882;53.192;8.184;2022-12-07T19:16:44;3.50;99.90
17529;DHT22;8882;53.192;8.184;2022-12-07T19:19:10;3.40;99.90
17529;DHT22;8882;53.192;8.184;2022-12-07T19:21:35;3.40;99.90
17529;DHT22;8882;53.192;8.184;2022-12-07T19:24:04;3.40;99.90
17529;DHT22;8882;53.192;8.184;2022-12-07T19:26:30;3.50;99.90
17529;DHT22;8882;53.192;8.184;2022-12-07T19:28:56;3.50;99.90
17529;DHT22;8882;53.192;8.184;2022-12-07T19:31:22;3.60;99.90
17529;DHT22;8882;53.192;8.184;2022-12-07T19:33:47;3.60;99.90
17529;DHT22;8882;53.192;8.184;2022-12-07T19:36:13;3.50;99.90
17529;DHT22;8882;53.192;8.184;2022-12-07T19:38:38;3.50;99.90
17529;DHT22;8882;53.192;8.184;2022-12-07T19:41:09;3.50;99.90
17529;DHT22;8882;53.192;8.184;2022-12-07T19:43:55;3.50;99.90
17529;DHT22;8882;53.192;8.184;2022-12-07T19:46:21;3.40;99.90
17529;DHT22;8882;53.192;8.184;2022-12-07T19:48:46;3.40;99.90
17529;DHT22;8882;53.192;8.184;2022-12-07T19:51:12;3.40;99.90
17529;DHT22;8882;53.192;8.184;2022-12-07T19:53:37;3.40;99.90
17529;DHT22;8882;53.192;8.184;2022-12-07T19:56:03;3.40;99.90
17529;DHT22;8882;53.192;8.184;2022-12-07T19:58:28;3.30;99.90
17529;DHT22;8882;53.192;8.184;2022-12-07T20:00:54;3.30;99.90
17529;DHT22;8882;53.192;8.184;2022-12-07T20:03:19;3.30;99.90
17529;DHT22;8882;53.192;8.184;2022-12-07T20:05:45;3.20;99.90
17529;DHT22;8882;53.192;8.184;2022-12-07T20:08:11;3.30;99.90
17529;DHT22;8882;53.192;8.184;2022-12-07T20:10:40;3.30;99.90
17529;DHT22;8882;53.192;8.184;2022-12-07T20:13:05;3.20;99.90
17529;DHT22;8882;53.192;8.184;2022-12-07T20:15:49;3.20;99.90
17529;DHT22;8882;53.192;8.184;2022-12-07T20:18:15;3.20;99.90
17529;DHT22;8882;53.192;8.184;2022-12-07T20:20:41;3.10;99.90
17529;DHT22;8882;53.192;8.184;2022-12-07T20:23:08;3.10;99.90
17529;DHT22;8882;53.192;8.184;2022-12-07T20:25:36;3.10;99.90
17529;DHT22;8882;53.192;8.184;2022-12-07T20:28:02;3.10;99.90
17529;DHT22;8882;53.192;8.184;2022-12-07T20:30:28;3.10;99.90
17529;DHT22;8882;53.192;8.184;2022-12-07T20:32:53;3.20;99.90
17529;DHT22;8882;53.192;8.184;2022-12-07T20:35:18;3.20;99.90
17529;DHT22;8882;53.192;8.184;2022-12-07T20:37:44;3.20;99.90
17529;DHT22;8882;53.192;8.184;2022-12-07T20:40:10;3.20;99.90
17529;DHT22;8882;53.192;8.184;2022-12-07T20:42:35;3.20;99.90
17529;DHT22;8882;53.192;8.184;2022-12-07T20:45:01;3.10;99.90
17529;DHT22;8882;53.192;8.184;2022-12-07T20:47:27;3.00;99.90
17529;DHT22;8882;53.192;8.184;2022-12-07T20:49:53;3.10;99.90
17529;DHT22;8882;53.192;8.184;2022-12-07T20:52:18;3.00;99.90
17529;DHT22;8882;53.192;8.184;2022-12-07T20:54:45;3.00;99.90
17529;DHT22;8882;53.192;8.184;2022-12-07T20:57:11;3.00;99.90
17529;DHT22;8882;53.192;8.184;2022-12-07T20:59:36;3.00;99.90
17529;DHT22;8882;53.192;8.184;2022-12-07T21:02:02;3.00;99.90
17529;DHT22;8882;53.192;8.184;2022-12-07T21:04:28;3.00;99.90
17529;DHT22;8882;53.192;8.184;2022-12-07T21:06:53;3.00;99.90
17529;DHT22;8882;53.192;8.184;2022-12-07T21:09:19;2.90;99.90
17529;DHT22;8882;53.192;8.184;2022-12-07T21:11:51;2.80;99.90
17529;DHT22;8882;53.192;8.184;2022-12-07T21:14:16;2.90;99.90
17529;DHT22;8882;53.192;8.184;2022-12-07T21:16:42;3.00;99.90
17529;DHT22;8882;53.192;8.184;2022-12-07T21:19:08;3.00;99.90
17529;DHT22;8882;53.192;8.184;2022-12-07T21:21:34;2.90;99.90
17529;DHT22;8882;53.192;8.184;2022-12-07T21:24:02;3.00;99.90
17529;DHT22;8882;53.192;8.184;2022-12-07T21:26:28;3.00;99.90
17529;DHT22;8882;53.192;8.184;2022-12-07T21:28:54;3.00;99.90
17529;DHT22;8882;53.192;8.184;2022-12-07T21:31:20;3.00;99.90
17529;DHT22;8882;53.192;8.184;2022-12-07T21:33:46;3.10;99.90
17529;DHT22;8882;53.192;8.184;2022-12-07T21:36:13;3.00;99.90
17529;DHT22;8882;53.192;8.184;2022-12-07T21:38:39;3.00;99.90
17529;DHT22;8882;53.192;8.184;2022-12-07T21:41:16;3.00;99.90
17529;DHT22;8882;53.192;8.184;2022-12-07T21:43:43;3.00;99.90
17529;DHT22;8882;53.192;8.184;2022-12-07T21:46:09;3.00;99.90
17529;DHT22;8882;53.192;8.184;2022-12-07T21:48:35;3.00;99.90
17529;DHT22;8882;53.192;8.184;2022-12-07T21:51:09;3.00;99.90
17529;DHT22;8882;53.192;8.184;2022-12-07T21:53:37;3.00;99.90
17529;DHT22;8882;53.192;8.184;2022-12-07T21:56:03;3.00;99.90
17529;DHT22;8882;53.192;8.184;2022-12-07T21:58:30;3.00;99.90
